sensor_id;sensor_type;location;lat;lon;timestamp;pressure;altitude;pressure_sealevel;temperature;humidity
50672;BME280;46021;55.882;37.654;2023-05-23T00:00:19;99929.34;;;10.53;77.34
50672;BME280;46021;55.882;37.654;2023-05-23T00:02:46;99924.25;;;10.48;77.47
50672;BME280;46021;55.882;37.654;2023-05-23T00:05:14;99932.09;;;10.47;77.51
50672;BME280;46021;55.882;37.654;2023-05-23T00:07:42;99930.44;;;10.44;77.85
50672;BME280;46021;55.882;37.654;2023-05-23T00:10:10;99931.44;;;10.40;77.99
50672;BME280;46021;55.882;37.654;2023-05-23T00:12:37;99933.22;;;10.38;78.07
50672;BME280;46021;55.882;37.654;2023-05-23T00:15:08;99929.00;;;10.34;78.62
50672;BME280;46021;55.882;37.654;2023-05-23T00:17:37;99924.72;;;10.31;78.37
50672;BME280;46021;55.882;37.654;2023-05-23T00:20:05;99929.13;;;10.28;78.35
50672;BME280;46021;55.882;37.654;2023-05-23T00:22:34;99931.84;;;10.23;78.56
50672;BME280;46021;55.882;37.654;2023-05-23T00:25:07;99930.16;;;10.21;78.63
50672;BME280;46021;55.882;37.654;2023-05-23T00:27:34;99929.34;;;10.19;78.33
50672;BME280;46021;55.882;37.654;2023-05-23T00:30:02;99926.84;;;10.15;78.99
50672;BME280;46021;55.882;37.654;2023-05-23T00:32:33;99939.94;;;10.12;78.88
50672;BME280;46021;55.882;37.654;2023-05-23T00:35:01;99930.53;;;10.07;78.82
50672;BME280;46021;55.882;37.654;2023-05-23T00:37:30;99927.13;;;10.05;78.93
50672;BME280;46021;55.882;37.654;2023-05-23T00:39:58;99924.56;;;10.03;78.78
50672;BME280;46021;55.882;37.654;2023-05-23T00:42:26;99928.91;;;10.03;79.20
50672;BME280;46021;55.882;37.654;2023-05-23T00:44:53;99923.84;;;9.98;79.70
50672;BME280;46021;55.882;37.654;2023-05-23T00:47:20;99932.56;;;9.95;79.12
50672;BME280;46021;55.882;37.654;2023-05-23T00:49:47;99935.19;;;9.94;79.52
50672;BME280;46021;55.882;37.654;2023-05-23T00:52:16;99929.16;;;9.92;79.61
50672;BME280;46021;55.882;37.654;2023-05-23T00:54:43;99930.94;;;9.91;79.69
50672;BME280;46021;55.882;37.654;2023-05-23T00:57:11;99925.78;;;9.88;79.80
50672;BME280;46021;55.882;37.654;2023-05-23T00:59:38;99935.41;;;9.85;79.97
50672;BME280;46021;55.882;37.654;2023-05-23T01:02:06;99926.88;;;9.80;79.93
50672;BME280;46021;55.882;37.654;2023-05-23T01:04:34;99928.59;;;9.81;80.14
50672;BME280;46021;55.882;37.654;2023-05-23T01:07:02;99924.28;;;9.80;79.97
50672;BME280;46021;55.882;37.654;2023-05-23T01:09:30;99917.34;;;9.79;80.15
50672;BME280;46021;55.882;37.654;2023-05-23T01:12:13;99932.91;;;9.82;80.24
50672;BME280;46021;55.882;37.654;2023-05-23T01:14:47;99920.81;;;9.79;79.98
50672;BME280;46021;55.882;37.654;2023-05-23T01:17:20;99920.81;;;9.79;80.05
50672;BME280;46021;55.882;37.654;2023-05-23T01:19:57;99922.53;;;9.80;80.71
50672;BME280;46021;55.882;37.654;2023-05-23T01:22:45;99918.94;;;9.84;81.05
50672;BME280;46021;55.882;37.654;2023-05-23T01:25:27;99912.84;;;9.87;81.11
50672;BME280;46021;55.882;37.654;2023-05-23T01:28:01;99908.44;;;9.89;80.74
50672;BME280;46021;55.882;37.654;2023-05-23T01:30:31;99907.38;;;9.96;80.60
50672;BME280;46021;55.882;37.654;2023-05-23T01:33:01;99897.69;;;10.01;80.38
50672;BME280;46021;55.882;37.654;2023-05-23T01:35:29;99902.78;;;10.06;80.09
50672;BME280;46021;55.882;37.654;2023-05-23T01:37:57;99901.91;;;10.05;80.10
50672;BME280;46021;55.882;37.654;2023-05-23T01:40:25;99915.63;;;10.13;80.08
50672;BME280;46021;55.882;37.654;2023-05-23T01:42:52;99909.44;;;10.18;79.90
50672;BME280;46021;55.882;37.654;2023-05-23T01:45:24;99901.56;;;10.19;79.70
50672;BME280;46021;55.882;37.654;2023-05-23T01:47:53;99915.44;;;10.20;79.76
50672;BME280;46021;55.882;37.654;2023-05-23T01:50:21;99914.53;;;10.21;79.73
50672;BME280;46021;55.882;37.654;2023-05-23T01:52:49;99911.94;;;10.21;79.66
50672;BME280;46021;55.882;37.654;2023-05-23T01:55:17;99910.91;;;10.26;79.89
50672;BME280;46021;55.882;37.654;2023-05-23T01:57:49;99904.84;;;10.26;79.72
50672;BME280;46021;55.882;37.654;2023-05-23T02:00:17;99903.03;;;10.31;79.62
50672;BME280;46021;55.882;37.654;2023-05-23T02:02:47;99903.84;;;10.33;79.74
50672;BME280;46021;55.882;37.654;2023-05-23T02:05:16;99907.22;;;10.37;79.79
50672;BME280;46021;55.882;37.654;2023-05-23T02:07:44;99907.97;;;10.40;79.59
50672;BME280;46021;55.882;37.654;2023-05-23T02:10:11;99901.06;;;10.39;79.42
50672;BME280;46021;55.882;37.654;2023-05-23T02:12:39;99912.22;;;10.44;80.10
50672;BME280;46021;55.882;37.654;2023-05-23T02:15:07;99901.72;;;10.47;80.13
50672;BME280;46021;55.882;37.654;2023-05-23T02:17:35;99897.91;;;10.59;79.71
50672;BME280;46021;55.882;37.654;2023-05-23T02:20:07;99891.72;;;10.62;79.79
50672;BME280;46021;55.882;37.654;2023-05-23T02:22:34;99893.00;;;10.78;79.29
50672;BME280;46021;55.882;37.654;2023-05-23T02:25:02;99897.84;;;10.90;78.56
50672;BME280;46021;55.882;37.654;2023-05-23T02:27:30;99904.59;;;10.98;78.31
50672;BME280;46021;55.882;37.654;2023-05-23T02:29:57;99889.69;;;11.01;78.47
50672;BME280;46021;55.882;37.654;2023-05-23T02:32:24;99897.50;;;11.03;78.21
50672;BME280;46021;55.882;37.654;2023-05-23T02:34:52;99892.19;;;11.06;78.27
50672;BME280;46021;55.882;37.654;2023-05-23T02:37:20;99883.44;;;11.07;78.54
50672;BME280;46021;55.882;37.654;2023-05-23T02:39:47;99886.09;;;11.05;78.27
50672;BME280;46021;55.882;37.654;2023-05-23T02:42:15;99892.06;;;11.09;78.43
50672;BME280;46021;55.882;37.654;2023-05-23T02:44:42;99898.81;;;11.16;78.28
50672;BME280;46021;55.882;37.654;2023-05-23T02:47:09;99897.69;;;11.25;78.23
50672;BME280;46021;55.882;37.654;2023-05-23T02:49:36;99894.78;;;11.34;78.50
50672;BME280;46021;55.882;37.654;2023-05-23T02:52:05;99891.78;;;11.46;78.16
50672;BME280;46021;55.882;37.654;2023-05-23T02:54:34;99892.25;;;11.59;77.75
50672;BME280;46021;55.882;37.654;2023-05-23T02:57:01;99889.34;;;11.68;77.69
50672;BME280;46021;55.882;37.654;2023-05-23T02:59:32;99903.03;;;11.75;77.63
50672;BME280;46021;55.882;37.654;2023-05-23T03:01:59;99902.97;;;11.77;76.75
50672;BME280;46021;55.882;37.654;2023-05-23T03:04:26;99896.97;;;11.75;76.20
50672;BME280;46021;55.882;37.654;2023-05-23T03:06:54;99894.31;;;11.76;76.56
50672;BME280;46021;55.882;37.654;2023-05-23T03:09:24;99898.66;;;11.76;76.23
50672;BME280;46021;55.882;37.654;2023-05-23T03:12:00;99900.59;;;11.70;76.18
50672;BME280;46021;55.882;37.654;2023-05-23T03:14:30;99896.97;;;11.75;75.99
50672;BME280;46021;55.882;37.654;2023-05-23T03:16:59;99909.84;;;11.79;75.53
50672;BME280;46021;55.882;37.654;2023-05-23T03:19:28;99908.03;;;11.81;74.96
50672;BME280;46021;55.882;37.654;2023-05-23T03:21:56;99909.00;;;11.79;73.14
50672;BME280;46021;55.882;37.654;2023-05-23T03:24:24;99905.06;;;11.94;74.22
50672;BME280;46021;55.882;37.654;2023-05-23T03:26:53;99898.72;;;12.01;74.08
50672;BME280;46021;55.882;37.654;2023-05-23T03:29:20;99900.28;;;12.06;73.36
50672;BME280;46021;55.882;37.654;2023-05-23T03:31:47;99902.44;;;12.19;73.14
50672;BME280;46021;55.882;37.654;2023-05-23T03:34:14;99893.41;;;12.29;73.00
50672;BME280;46021;55.882;37.654;2023-05-23T03:36:42;99914.88;;;12.37;72.56
50672;BME280;46021;55.882;37.654;2023-05-23T03:39:09;99903.91;;;12.51;72.30
50672;BME280;46021;55.882;37.654;2023-05-23T03:41:37;99888.88;;;12.58;71.42
50672;BME280;46021;55.882;37.654;2023-05-23T03:44:05;99884.88;;;12.71;71.28
50672;BME280;46021;55.882;37.654;2023-05-23T03:46:33;99895.91;;;12.79;70.16
50672;BME280;46021;55.882;37.654;2023-05-23T03:49:00;99898.19;;;12.88;69.76
50672;BME280;46021;55.882;37.654;2023-05-23T03:51:28;99895.31;;;12.95;68.96
50672;BME280;46021;55.882;37.654;2023-05-23T03:53:57;99885.19;;;13.09;69.69
50672;BME280;46021;55.882;37.654;2023-05-23T03:56:24;99885.81;;;13.16;69.14
50672;BME280;46021;55.882;37.654;2023-05-23T03:58:52;99890.56;;;13.28;69.06
50672;BME280;46021;55.882;37.654;2023-05-23T04:01:20;99882.63;;;13.30;68.22
50672;BME280;46021;55.882;37.654;2023-05-23T04:03:48;99882.56;;;13.33;68.13
50672;BME280;46021;55.882;37.654;2023-05-23T04:06:16;99893.88;;;13.33;68.35
50672;BME280;46021;55.882;37.654;2023-05-23T04:08:45;99889.59;;;13.31;67.66
50672;BME280;46021;55.882;37.654;2023-05-23T04:11:13;99887.81;;;13.33;67.60
50672;BME280;46021;55.882;37.654;2023-05-23T04:13:40;99889.38;;;13.37;68.19
50672;BME280;46021;55.882;37.654;2023-05-23T04:16:09;99898.47;;;13.26;67.48
50672;BME280;46021;55.882;37.654;2023-05-23T04:18:38;99890.75;;;13.23;66.92
50672;BME280;46021;55.882;37.654;2023-05-23T04:21:06;99884.19;;;13.12;66.91
50672;BME280;46021;55.882;37.654;2023-05-23T04:23:38;99885.28;;;13.06;67.08
50672;BME280;46021;55.882;37.654;2023-05-23T04:26:06;99886.13;;;13.08;67.17
50672;BME280;46021;55.882;37.654;2023-05-23T04:28:39;99881.09;;;13.02;67.39
50672;BME280;46021;55.882;37.654;2023-05-23T04:31:08;99877.53;;;13.04;67.57
50672;BME280;46021;55.882;37.654;2023-05-23T04:33:37;99864.13;;;13.12;67.51
50672;BME280;46021;55.882;37.654;2023-05-23T04:36:06;99874.44;;;13.39;67.68
50672;BME280;46021;55.882;37.654;2023-05-23T04:38:35;99881.94;;;13.48;67.55
50672;BME280;46021;55.882;37.654;2023-05-23T04:41:04;99875.41;;;13.58;66.97
50672;BME280;46021;55.882;37.654;2023-05-23T04:43:58;99878.09;;;13.77;67.13
50672;BME280;46021;55.882;37.654;2023-05-23T04:46:37;99881.00;;;13.92;66.51
50672;BME280;46021;55.882;37.654;2023-05-23T04:49:16;99874.25;;;14.07;66.26
50672;BME280;46021;55.882;37.654;2023-05-23T04:51:43;99871.88;;;14.21;66.40
50672;BME280;46021;55.882;37.654;2023-05-23T04:54:30;99883.53;;;14.34;65.82
50672;BME280;46021;55.882;37.654;2023-05-23T04:57:01;99876.31;;;14.39;65.39
50672;BME280;46021;55.882;37.654;2023-05-23T04:59:28;99889.94;;;14.48;64.48
50672;BME280;46021;55.882;37.654;2023-05-23T05:01:56;99886.69;;;14.42;64.92
50672;BME280;46021;55.882;37.654;2023-05-23T05:04:25;99888.25;;;14.47;64.76
50672;BME280;46021;55.882;37.654;2023-05-23T05:06:52;99904.75;;;14.49;65.10
50672;BME280;46021;55.882;37.654;2023-05-23T05:09:19;99911.63;;;14.51;64.39
50672;BME280;46021;55.882;37.654;2023-05-23T05:11:48;99909.72;;;14.55;64.17
50672;BME280;46021;55.882;37.654;2023-05-23T05:14:15;99906.38;;;14.51;64.26
50672;BME280;46021;55.882;37.654;2023-05-23T05:16:43;99911.97;;;14.64;64.33
50672;BME280;46021;55.882;37.654;2023-05-23T05:19:11;99918.66;;;14.71;64.34
50672;BME280;46021;55.882;37.654;2023-05-23T05:21:40;99921.00;;;14.77;63.96
50672;BME280;46021;55.882;37.654;2023-05-23T05:24:07;99918.25;;;14.80;64.02
50672;BME280;46021;55.882;37.654;2023-05-23T05:26:36;99913.84;;;15.00;63.99
50672;BME280;46021;55.882;37.654;2023-05-23T05:29:03;99916.50;;;15.17;64.07
50672;BME280;46021;55.882;37.654;2023-05-23T05:31:31;99915.94;;;15.30;64.04
50672;BME280;46021;55.882;37.654;2023-05-23T05:34:00;99920.59;;;15.42;63.99
50672;BME280;46021;55.882;37.654;2023-05-23T05:36:27;99923.13;;;15.63;63.28
50672;BME280;46021;55.882;37.654;2023-05-23T05:38:56;99923.03;;;15.83;63.42
50672;BME280;46021;55.882;37.654;2023-05-23T05:41:24;99916.59;;;16.06;63.46
50672;BME280;46021;55.882;37.654;2023-05-23T05:43:53;99905.41;;;16.20;62.09
50672;BME280;46021;55.882;37.654;2023-05-23T05:46:20;99904.13;;;16.27;62.00
50672;BME280;46021;55.882;37.654;2023-05-23T05:48:48;99906.00;;;16.25;61.41
50672;BME280;46021;55.882;37.654;2023-05-23T05:51:17;99899.50;;;16.15;61.26
50672;BME280;46021;55.882;37.654;2023-05-23T05:53:44;99901.97;;;16.01;60.81
50672;BME280;46021;55.882;37.654;2023-05-23T05:56:12;99897.75;;;15.98;60.84
50672;BME280;46021;55.882;37.654;2023-05-23T05:58:39;99889.31;;;15.91;61.08
50672;BME280;46021;55.882;37.654;2023-05-23T06:01:09;99886.53;;;15.94;61.01
50672;BME280;46021;55.882;37.654;2023-05-23T06:03:37;99884.81;;;15.93;61.35
50672;BME280;46021;55.882;37.654;2023-05-23T06:06:04;99884.53;;;16.00;61.67
50672;BME280;46021;55.882;37.654;2023-05-23T06:08:33;99893.94;;;16.04;61.41
50672;BME280;46021;55.882;37.654;2023-05-23T06:11:01;99883.88;;;16.12;61.77
50672;BME280;46021;55.882;37.654;2023-05-23T06:13:30;99881.44;;;16.09;61.84
50672;BME280;46021;55.882;37.654;2023-05-23T06:15:58;99886.38;;;16.15;61.50
50672;BME280;46021;55.882;37.654;2023-05-23T06:18:25;99880.00;;;16.19;61.33
50672;BME280;46021;55.882;37.654;2023-05-23T06:20:52;99885.59;;;16.13;61.22
50672;BME280;46021;55.882;37.654;2023-05-23T06:23:20;99874.81;;;16.17;60.90
50672;BME280;46021;55.882;37.654;2023-05-23T06:25:48;99864.09;;;16.22;61.45
50672;BME280;46021;55.882;37.654;2023-05-23T06:28:15;99866.06;;;16.34;61.41
50672;BME280;46021;55.882;37.654;2023-05-23T06:30:46;99863.97;;;16.57;61.06
50672;BME280;46021;55.882;37.654;2023-05-23T06:33:13;99866.84;;;16.86;61.42
50672;BME280;46021;55.882;37.654;2023-05-23T06:35:43;99855.28;;;17.20;61.45
50672;BME280;46021;55.882;37.654;2023-05-23T06:38:10;99858.72;;;17.52;59.83
50672;BME280;46021;55.882;37.654;2023-05-23T06:40:39;99850.09;;;17.65;59.43
50672;BME280;46021;55.882;37.654;2023-05-23T06:43:08;99855.22;;;17.82;58.77
50672;BME280;46021;55.882;37.654;2023-05-23T06:45:46;99851.03;;;17.94;58.23
50672;BME280;46021;55.882;37.654;2023-05-23T06:48:14;99844.66;;;17.98;57.78
50672;BME280;46021;55.882;37.654;2023-05-23T06:50:41;99849.63;;;17.88;57.38
50672;BME280;46021;55.882;37.654;2023-05-23T06:53:10;99849.84;;;18.00;58.16
50672;BME280;46021;55.882;37.654;2023-05-23T06:55:37;99845.88;;;18.21;58.51
50672;BME280;46021;55.882;37.654;2023-05-23T06:58:06;99836.19;;;18.36;57.21
50672;BME280;46021;55.882;37.654;2023-05-23T07:00:36;99830.44;;;18.44;57.30
50672;BME280;46021;55.882;37.654;2023-05-23T07:03:19;99831.69;;;18.80;57.22
50672;BME280;46021;55.882;37.654;2023-05-23T07:05:46;99826.59;;;19.05;55.91
50672;BME280;46021;55.882;37.654;2023-05-23T07:08:15;99810.09;;;19.15;56.09
50672;BME280;46021;55.882;37.654;2023-05-23T07:10:54;99814.41;;;19.30;54.48
50672;BME280;46021;55.882;37.654;2023-05-23T07:13:28;99817.50;;;19.50;54.98
50672;BME280;46021;55.882;37.654;2023-05-23T07:15:56;99806.63;;;19.67;54.88
50672;BME280;46021;55.882;37.654;2023-05-23T07:18:25;99805.81;;;19.66;54.10
50672;BME280;46021;55.882;37.654;2023-05-23T07:20:52;99811.25;;;19.91;53.42
50672;BME280;46021;55.882;37.654;2023-05-23T07:23:22;99809.03;;;20.10;53.18
50672;BME280;46021;55.882;37.654;2023-05-23T07:25:50;99809.53;;;20.28;53.22
50672;BME280;46021;55.882;37.654;2023-05-23T07:28:24;99813.84;;;20.55;52.51
50672;BME280;46021;55.882;37.654;2023-05-23T07:30:53;99817.00;;;20.73;52.41
50672;BME280;46021;55.882;37.654;2023-05-23T07:33:22;99808.44;;;20.93;52.44
50672;BME280;46021;55.882;37.654;2023-05-23T07:35:52;99809.09;;;21.21;52.06
50672;BME280;46021;55.882;37.654;2023-05-23T07:38:19;99818.28;;;21.39;51.00
50672;BME280;46021;55.882;37.654;2023-05-23T07:40:46;99826.75;;;21.69;50.96
50672;BME280;46021;55.882;37.654;2023-05-23T07:43:13;99814.34;;;21.80;50.44
50672;BME280;46021;55.882;37.654;2023-05-23T07:45:41;99817.94;;;21.79;50.08
50672;BME280;46021;55.882;37.654;2023-05-23T07:48:08;99820.06;;;21.52;49.17
50672;BME280;46021;55.882;37.654;2023-05-23T07:50:38;99829.16;;;21.12;49.78
50672;BME280;46021;55.882;37.654;2023-05-23T07:53:07;99831.06;;;21.10;49.70
50672;BME280;46021;55.882;37.654;2023-05-23T07:55:35;99826.16;;;21.17;49.93
50672;BME280;46021;55.882;37.654;2023-05-23T07:58:02;99830.78;;;21.26;50.08
50672;BME280;46021;55.882;37.654;2023-05-23T08:00:30;99827.19;;;21.27;49.27
50672;BME280;46021;55.882;37.654;2023-05-23T08:03:05;99824.69;;;21.13;48.71
50672;BME280;46021;55.882;37.654;2023-05-23T08:05:37;99842.28;;;21.14;49.52
50672;BME280;46021;55.882;37.654;2023-05-23T08:08:05;99835.59;;;21.21;49.43
50672;BME280;46021;55.882;37.654;2023-05-23T08:10:34;99838.63;;;21.03;49.28
50672;BME280;46021;55.882;37.654;2023-05-23T08:13:08;99837.09;;;20.88;49.64
50672;BME280;46021;55.882;37.654;2023-05-23T08:15:45;99824.34;;;20.93;49.31
50672;BME280;46021;55.882;37.654;2023-05-23T08:18:16;99818.28;;;21.04;49.82
50672;BME280;46021;55.882;37.654;2023-05-23T08:20:43;99824.78;;;21.35;50.51
50672;BME280;46021;55.882;37.654;2023-05-23T08:23:10;99826.03;;;21.42;49.61
50672;BME280;46021;55.882;37.654;2023-05-23T08:25:40;99824.91;;;21.58;49.46
50672;BME280;46021;55.882;37.654;2023-05-23T08:28:07;99834.13;;;21.76;50.02
50672;BME280;46021;55.882;37.654;2023-05-23T08:30:47;99826.69;;;21.82;49.48
50672;BME280;46021;55.882;37.654;2023-05-23T08:33:14;99828.13;;;21.86;49.19
50672;BME280;46021;55.882;37.654;2023-05-23T08:35:43;99817.94;;;21.57;48.80
50672;BME280;46021;55.882;37.654;2023-05-23T08:38:12;99832.31;;;21.17;49.36
50672;BME280;46021;55.882;37.654;2023-05-23T08:40:51;99818.94;;;21.19;49.98
50672;BME280;46021;55.882;37.654;2023-05-23T08:43:20;99815.69;;;21.15;49.35
50672;BME280;46021;55.882;37.654;2023-05-23T08:45:48;99826.81;;;21.32;49.53
50672;BME280;46021;55.882;37.654;2023-05-23T08:48:18;99824.41;;;21.53;49.96
50672;BME280;46021;55.882;37.654;2023-05-23T08:50:50;99822.84;;;22.08;49.94
50672;BME280;46021;55.882;37.654;2023-05-23T08:53:22;99827.44;;;22.63;49.05
50672;BME280;46021;55.882;37.654;2023-05-23T08:56:01;99818.56;;;22.96;47.50
50672;BME280;46021;55.882;37.654;2023-05-23T08:58:39;99823.84;;;23.19;47.66
50672;BME280;46021;55.882;37.654;2023-05-23T09:01:07;99810.47;;;22.97;46.14
50672;BME280;46021;55.882;37.654;2023-05-23T09:03:36;99804.28;;;22.65;46.76
50672;BME280;46021;55.882;37.654;2023-05-23T09:06:29;99817.03;;;21.92;46.78
50672;BME280;46021;55.882;37.654;2023-05-23T09:08:57;99823.78;;;21.25;47.71
50672;BME280;46021;55.882;37.654;2023-05-23T09:11:26;99820.31;;;21.00;49.36
50672;BME280;46021;55.882;37.654;2023-05-23T09:13:54;99805.19;;;20.40;49.59
50672;BME280;46021;55.882;37.654;2023-05-23T09:16:23;99824.25;;;19.94;51.22
50672;BME280;46021;55.882;37.654;2023-05-23T09:18:54;99822.50;;;19.67;52.08
50672;BME280;46021;55.882;37.654;2023-05-23T09:21:23;99817.97;;;19.29;53.35
50672;BME280;46021;55.882;37.654;2023-05-23T09:24:00;99831.66;;;19.08;54.01
50672;BME280;46021;55.882;37.654;2023-05-23T09:26:29;99849.25;;;18.81;55.53
50672;BME280;46021;55.882;37.654;2023-05-23T09:28:57;99857.56;;;18.89;55.42
50672;BME280;46021;55.882;37.654;2023-05-23T09:31:25;99855.09;;;18.86;56.47
50672;BME280;46021;55.882;37.654;2023-05-23T09:33:57;99862.59;;;19.06;56.56
50672;BME280;46021;55.882;37.654;2023-05-23T09:36:27;99844.59;;;19.26;56.24
50672;BME280;46021;55.882;37.654;2023-05-23T09:38:55;99859.91;;;19.48;56.32
50672;BME280;46021;55.882;37.654;2023-05-23T09:41:22;99861.34;;;19.39;56.65
50672;BME280;46021;55.882;37.654;2023-05-23T09:43:52;99861.19;;;19.28;56.76
50672;BME280;46021;55.882;37.654;2023-05-23T09:46:21;99859.72;;;19.24;56.82
50672;BME280;46021;55.882;37.654;2023-05-23T09:48:48;99870.59;;;19.19;57.67
50672;BME280;46021;55.882;37.654;2023-05-23T09:51:18;99852.34;;;19.02;56.87
50672;BME280;46021;55.882;37.654;2023-05-23T09:53:46;99863.56;;;18.77;57.49
50672;BME280;46021;55.882;37.654;2023-05-23T09:56:15;99860.41;;;18.57;58.27
50672;BME280;46021;55.882;37.654;2023-05-23T09:58:45;99869.28;;;18.42;58.62
50672;BME280;46021;55.882;37.654;2023-05-23T10:01:14;99875.66;;;18.23;59.70
50672;BME280;46021;55.882;37.654;2023-05-23T10:03:45;99854.53;;;18.09;60.41
50672;BME280;46021;55.882;37.654;2023-05-23T10:06:16;99858.66;;;17.99;60.34
50672;BME280;46021;55.882;37.654;2023-05-23T10:08:53;99862.81;;;17.88;60.35
50672;BME280;46021;55.882;37.654;2023-05-23T10:14:28;99870.19;;;17.82;61.02
50672;BME280;46021;55.882;37.654;2023-05-23T10:17:04;99864.16;;;17.80;61.50
50672;BME280;46021;55.882;37.654;2023-05-23T10:19:39;99862.38;;;17.80;61.65
50672;BME280;46021;55.882;37.654;2023-05-23T10:22:13;99862.06;;;17.86;61.67
50672;BME280;46021;55.882;37.654;2023-05-23T10:24:44;99859.78;;;17.95;61.63
50672;BME280;46021;55.882;37.654;2023-05-23T10:27:11;99861.69;;;17.92;61.37
50672;BME280;46021;55.882;37.654;2023-05-23T10:29:39;99864.31;;;18.07;61.35
50672;BME280;46021;55.882;37.654;2023-05-23T10:32:08;99861.88;;;18.18;61.26
50672;BME280;46021;55.882;37.654;2023-05-23T10:34:40;99864.94;;;18.26;61.65
50672;BME280;46021;55.882;37.654;2023-05-23T10:37:11;99865.28;;;18.20;61.08
50672;BME280;46021;55.882;37.654;2023-05-23T10:39:54;99867.75;;;18.23;61.94
50672;BME280;46021;55.882;37.654;2023-05-23T10:42:32;99867.06;;;18.20;61.97
50672;BME280;46021;55.882;37.654;2023-05-23T10:45:16;99868.84;;;18.05;63.11
50672;BME280;46021;55.882;37.654;2023-05-23T10:47:46;99863.78;;;18.02;62.44
50672;BME280;46021;55.882;37.654;2023-05-23T10:50:13;99866.97;;;17.92;62.49
50672;BME280;46021;55.882;37.654;2023-05-23T10:52:42;99864.88;;;17.67;63.40
50672;BME280;46021;55.882;37.654;2023-05-23T10:55:13;99873.25;;;17.44;64.09
50672;BME280;46021;55.882;37.654;2023-05-23T10:57:43;99868.84;;;17.44;64.55
50672;BME280;46021;55.882;37.654;2023-05-23T11:00:14;99874.47;;;17.38;65.13
50672;BME280;46021;55.882;37.654;2023-05-23T11:03:05;99866.72;;;17.35;65.23
50672;BME280;46021;55.882;37.654;2023-05-23T11:05:33;99868.59;;;17.33;65.07
50672;BME280;46021;55.882;37.654;2023-05-23T11:08:07;99872.34;;;17.29;65.90
50672;BME280;46021;55.882;37.654;2023-05-23T11:10:55;99881.28;;;17.10;66.34
50672;BME280;46021;55.882;37.654;2023-05-23T11:13:22;99867.16;;;16.95;66.70
50672;BME280;46021;55.882;37.654;2023-05-23T11:15:50;99869.31;;;16.89;66.58
50672;BME280;46021;55.882;37.654;2023-05-23T11:18:22;99872.34;;;16.81;67.51
50672;BME280;46021;55.882;37.654;2023-05-23T11:20:52;99871.22;;;16.69;66.81
50672;BME280;46021;55.882;37.654;2023-05-23T11:23:19;99861.97;;;16.62;67.54
50672;BME280;46021;55.882;37.654;2023-05-23T11:25:48;99869.41;;;16.54;68.12
50672;BME280;46021;55.882;37.654;2023-05-23T11:28:16;99872.53;;;16.45;68.04
50672;BME280;46021;55.882;37.654;2023-05-23T11:30:46;99875.47;;;16.38;69.23
50672;BME280;46021;55.882;37.654;2023-05-23T11:33:15;99870.41;;;16.35;69.00
50672;BME280;46021;55.882;37.654;2023-05-23T11:35:46;99874.59;;;16.22;69.75
50672;BME280;46021;55.882;37.654;2023-05-23T11:38:14;99878.28;;;16.18;70.20
50672;BME280;46021;55.882;37.654;2023-05-23T11:40:45;99883.88;;;16.12;70.12
50672;BME280;46021;55.882;37.654;2023-05-23T11:43:16;99877.09;;;16.08;70.60
50672;BME280;46021;55.882;37.654;2023-05-23T11:45:48;99872.53;;;16.11;71.11
50672;BME280;46021;55.882;37.654;2023-05-23T11:48:17;99876.75;;;16.14;71.17
50672;BME280;46021;55.882;37.654;2023-05-23T11:50:49;99878.16;;;16.21;71.69
50672;BME280;46021;55.882;37.654;2023-05-23T11:53:18;99882.09;;;16.30;71.37
50672;BME280;46021;55.882;37.654;2023-05-23T11:55:54;99888.34;;;16.45;71.54
50672;BME280;46021;55.882;37.654;2023-05-23T11:58:26;99875.69;;;16.51;71.33
50672;BME280;46021;55.882;37.654;2023-05-23T12:00:57;99875.03;;;16.64;71.48
50672;BME280;46021;55.882;37.654;2023-05-23T12:03:25;99871.66;;;16.77;71.70
50672;BME280;46021;55.882;37.654;2023-05-23T12:05:55;99868.28;;;16.91;71.76
50672;BME280;46021;55.882;37.654;2023-05-23T12:08:22;99875.44;;;17.05;71.59
50672;BME280;46021;55.882;37.654;2023-05-23T12:10:51;99867.06;;;17.29;71.30
50672;BME280;46021;55.882;37.654;2023-05-23T12:13:19;99864.53;;;17.43;70.42
50672;BME280;46021;55.882;37.654;2023-05-23T12:15:51;99861.16;;;17.56;70.00
50672;BME280;46021;55.882;37.654;2023-05-23T12:18:19;99862.19;;;17.53;69.44
50672;BME280;46021;55.882;37.654;2023-05-23T12:20:47;99865.16;;;17.63;68.98
50672;BME280;46021;55.882;37.654;2023-05-23T12:23:20;99847.44;;;17.65;69.02
50672;BME280;46021;55.882;37.654;2023-05-23T12:25:49;99846.53;;;17.80;69.00
50672;BME280;46021;55.882;37.654;2023-05-23T12:28:17;99834.72;;;17.87;68.68
50672;BME280;46021;55.882;37.654;2023-05-23T12:30:45;99843.59;;;18.01;68.27
50672;BME280;46021;55.882;37.654;2023-05-23T12:33:13;99844.09;;;18.07;68.29
50672;BME280;46021;55.882;37.654;2023-05-23T12:35:42;99829.28;;;18.05;67.73
50672;BME280;46021;55.882;37.654;2023-05-23T12:38:14;99827.22;;;18.10;67.57
50672;BME280;46021;55.882;37.654;2023-05-23T12:40:43;99814.97;;;18.09;67.28
50672;BME280;46021;55.882;37.654;2023-05-23T12:43:11;99814.50;;;18.17;67.16
50672;BME280;46021;55.882;37.654;2023-05-23T12:45:38;99812.72;;;18.17;67.46
50672;BME280;46021;55.882;37.654;2023-05-23T12:48:05;99815.94;;;18.22;67.05
50672;BME280;46021;55.882;37.654;2023-05-23T12:50:33;99817.03;;;18.33;67.49
50672;BME280;46021;55.882;37.654;2023-05-23T12:53:01;99803.63;;;18.50;67.27
50672;BME280;46021;55.882;37.654;2023-05-23T12:55:28;99803.78;;;18.76;66.83
50672;BME280;46021;55.882;37.654;2023-05-23T12:57:56;99807.53;;;19.00;65.78
50672;BME280;46021;55.882;37.654;2023-05-23T13:00:23;99812.66;;;19.16;65.51
50672;BME280;46021;55.882;37.654;2023-05-23T13:02:51;99822.38;;;19.16;65.20
50672;BME280;46021;55.882;37.654;2023-05-23T13:05:18;99806.34;;;19.19;64.21